createdAt,value
2022-11-02T00:01:20.327Z,8.63
2022-11-02T00:03:48.499Z,6.93
2022-11-02T00:06:16.210Z,5.90
2022-11-02T00:08:43.858Z,3.88
2022-11-02T00:11:11.510Z,8.77
2022-11-02T00:13:40.561Z,8.77
2022-11-02T00:16:12.821Z,9.17
2022-11-02T00:18:40.749Z,9.00
2022-11-02T00:21:08.471Z,6.78
2022-11-02T00:23:36.111Z,8.40
2022-11-02T00:26:04.180Z,10.13
2022-11-02T00:28:32.061Z,9.20
2022-11-02T00:31:01.016Z,7.60
2022-11-02T00:33:28.720Z,5.20
2022-11-02T00:35:57.080Z,6.50
2022-11-02T00:38:24.748Z,7.78
2022-11-02T00:40:52.388Z,4.93
2022-11-02T00:43:20.051Z,12.27
2022-11-02T00:45:47.682Z,7.70
2022-11-02T00:48:16.749Z,6.75
2022-11-02T00:50:44.413Z,12.73
2022-11-02T00:53:12.099Z,10.20
2022-11-02T00:55:39.727Z,7.45
2022-11-02T00:58:07.753Z,6.83
2022-11-02T01:00:35.619Z,6.97
2022-11-02T01:03:03.661Z,10.52
2022-11-02T01:05:32.674Z,5.45
2022-11-02T01:08:00.428Z,8.48
2022-11-02T01:10:28.519Z,6.13
2022-11-02T01:12:56.168Z,10.10
2022-11-02T01:15:23.873Z,5.85
2022-11-02T01:17:51.489Z,4.97
2022-11-02T01:20:19.268Z,5.63
2022-11-02T01:22:48.263Z,5.38
2022-11-02T01:25:15.940Z,7.23
2022-11-02T01:27:43.585Z,4.50
2022-11-02T01:30:12.545Z,11.33
2022-11-02T01:32:40.260Z,6.50
2022-11-02T01:35:08.401Z,4.70
2022-11-02T01:37:36.204Z,11.00
2022-11-02T01:40:06.106Z,3.20
2022-11-02T01:42:33.831Z,7.50
2022-11-02T01:45:01.517Z,3.30
2022-11-02T01:47:31.845Z,12.13
2022-11-02T01:50:08.747Z,7.67
2022-11-02T01:52:38.683Z,6.70
2022-11-02T01:55:12.939Z,5.20
2022-11-02T01:57:43.044Z,6.17
2022-11-02T02:00:13.698Z,5.77
2022-11-02T02:02:45.621Z,5.50
2022-11-02T02:05:15.415Z,11.43
2022-11-02T02:07:43.469Z,5.03
2022-11-02T02:10:12.840Z,10.70
2022-11-02T02:12:43.481Z,6.83
2022-11-02T02:15:12.631Z,6.63
2022-11-02T02:17:47.832Z,7.23
2022-11-02T02:20:27.288Z,6.30
2022-11-02T02:23:31.057Z,3.90
2022-11-02T02:26:39.066Z,7.90
2022-11-02T02:29:12.695Z,6.07
2022-11-02T02:31:46.053Z,12.17
2022-11-02T02:34:18.655Z,4.70
2022-11-02T02:36:51.949Z,7.63
2022-11-02T02:39:25.070Z,4.10
2022-11-02T02:41:59.413Z,9.67
2022-11-02T02:44:32.778Z,6.43
2022-11-02T02:47:03.303Z,7.53
2022-11-02T02:49:38.462Z,6.40
2022-11-02T02:52:07.293Z,7.13
2022-11-02T02:54:39.851Z,5.30
2022-11-02T02:57:12.142Z,5.53
2022-11-02T02:59:43.822Z,4.17
2022-11-02T03:02:17.586Z,9.63
2022-11-02T03:04:45.342Z,6.77
2022-11-02T03:07:16.361Z,4.50
2022-11-02T03:09:50.843Z,5.77
2022-11-02T03:12:28.225Z,5.40
2022-11-02T03:15:10.363Z,6.23
2022-11-02T03:17:47.830Z,8.60
2022-11-02T03:20:23.900Z,5.10
2022-11-02T03:22:59.005Z,5.93
2022-11-02T03:25:31.713Z,10.10
2022-11-02T03:28:07.617Z,11.87
2022-11-02T03:30:43.862Z,5.80
2022-11-02T03:33:20.005Z,2.60
2022-11-02T03:35:53.134Z,7.33
2022-11-02T03:38:25.404Z,6.30
2022-11-02T03:40:56.860Z,8.33
2022-11-02T03:43:26.011Z,5.10
2022-11-02T03:45:57.881Z,4.10
2022-11-02T03:48:31.304Z,8.73
2022-11-02T03:51:03.981Z,6.17
2022-11-02T03:53:38.887Z,6.70
2022-11-02T03:56:11.286Z,7.13
2022-11-02T03:58:39.132Z,4.17
2022-11-02T04:01:09.371Z,5.23
2022-11-02T04:03:42.230Z,8.60
2022-11-02T04:06:10.199Z,9.20
2022-11-02T04:08:40.621Z,5.30
2022-11-02T04:11:26.679Z,7.63
2022-11-02T04:14:12.192Z,6.90
2022-11-02T04:16:41.406Z,7.00
2022-11-02T04:19:27.499Z,10.23
2022-11-02T04:22:13.337Z,7.50
2022-11-02T04:24:58.724Z,7.23
2022-11-02T04:27:27.295Z,9.20
2022-11-02T04:29:54.973Z,5.60
2022-11-02T04:32:37.886Z,8.00
2022-11-02T04:35:06.169Z,5.63
2022-11-02T04:37:56.896Z,8.83
2022-11-02T04:40:24.543Z,5.77
2022-11-02T04:42:52.217Z,4.93
2022-11-02T04:45:20.332Z,3.40
2022-11-02T04:47:49.399Z,6.90
2022-11-02T04:50:17.105Z,5.80
2022-11-02T04:52:44.742Z,5.90
2022-11-02T04:55:12.834Z,6.63
2022-11-02T04:57:45.093Z,4.80
2022-11-02T05:00:14.038Z,4.97
2022-11-02T05:02:41.761Z,5.87
2022-11-02T05:05:12.501Z,6.27
2022-11-02T05:07:40.137Z,4.70
2022-11-02T05:10:08.634Z,5.47
2022-11-02T05:12:36.315Z,7.27
2022-11-02T05:15:04.790Z,4.93
2022-11-02T05:17:32.582Z,6.23
2022-11-02T05:20:00.630Z,8.43
2022-11-02T05:22:29.586Z,9.13
2022-11-02T05:24:57.361Z,3.90
2022-11-02T05:27:25.012Z,9.40
2022-11-02T05:29:52.671Z,11.07
2022-11-02T05:32:20.440Z,7.17
2022-11-02T05:34:48.024Z,10.17
2022-11-02T05:37:15.725Z,10.30
2022-11-02T05:39:47.863Z,5.33
2022-11-02T05:42:18.056Z,7.13
2022-11-02T05:44:45.710Z,8.47
2022-11-02T05:47:13.400Z,11.20
2022-11-02T05:49:41.047Z,4.83
2022-11-02T05:52:08.770Z,6.50
2022-11-02T05:54:36.425Z,7.63
2022-11-02T05:57:05.489Z,9.10
2022-11-02T05:59:33.172Z,7.00
2022-11-02T06:02:00.934Z,6.87
2022-11-02T06:04:28.721Z,6.97
2022-11-02T06:06:58.011Z,7.23
2022-11-02T06:09:25.693Z,12.40
2022-11-02T06:11:53.390Z,10.10
2022-11-02T06:14:22.398Z,6.17
2022-11-02T06:16:50.046Z,8.93
2022-11-02T06:19:17.851Z,9.27
2022-11-02T06:21:48.315Z,12.33
2022-11-02T06:24:16.652Z,5.87
2022-11-02T06:26:44.374Z,8.50
2022-11-02T06:29:12.079Z,12.80
2022-11-02T06:31:41.154Z,11.80
2022-11-02T06:34:08.869Z,8.40
2022-11-02T06:36:36.669Z,6.37
2022-11-02T06:39:04.462Z,10.93
2022-11-02T06:41:32.141Z,6.23
2022-11-02T06:44:00.298Z,5.90
2022-11-02T06:46:28.062Z,5.77
2022-11-02T06:48:57.213Z,16.13
2022-11-02T06:51:30.903Z,6.00
2022-11-02T06:53:58.756Z,5.53
2022-11-02T06:56:26.547Z,6.40
2022-11-02T06:58:54.491Z,24.33
2022-11-02T07:01:22.526Z,13.77
2022-11-02T07:03:50.434Z,11.07
2022-11-02T07:06:20.016Z,11.00
2022-11-02T07:08:47.644Z,9.37
2022-11-02T07:11:16.270Z,8.37
2022-11-02T07:13:44.534Z,14.30
2022-11-02T07:16:12.577Z,9.47
2022-11-02T07:18:40.252Z,8.27
2022-11-02T07:21:10.412Z,6.93
2022-11-02T07:23:40.013Z,6.33
2022-11-02T07:26:07.750Z,10.90
2022-11-02T07:28:36.835Z,8.47
2022-11-02T07:31:05.379Z,7.60
2022-11-02T07:33:33.228Z,5.27
2022-11-02T07:36:03.789Z,9.97
2022-11-02T07:38:31.457Z,11.33
2022-11-02T07:41:00.522Z,7.20
2022-11-02T07:43:28.835Z,6.10
2022-11-02T07:45:56.540Z,8.60
2022-11-02T07:48:24.196Z,6.60
2022-11-02T07:50:51.892Z,11.53
2022-11-02T07:53:19.551Z,9.30
2022-11-02T07:55:47.187Z,12.30
2022-11-02T07:58:16.314Z,12.07
2022-11-02T08:00:44.182Z,9.97
2022-11-02T08:03:12.905Z,12.23
2022-11-02T08:05:42.792Z,28.20
2022-11-02T08:08:13.321Z,27.33
2022-11-02T08:10:42.135Z,36.90
2022-11-02T08:13:11.083Z,37.20
2022-11-02T08:15:40.451Z,23.57
2022-11-02T08:18:10.640Z,18.93
2022-11-02T08:20:38.345Z,26.67
2022-11-02T08:23:07.547Z,14.63
2022-11-02T08:25:37.496Z,18.37
2022-11-02T08:28:06.696Z,16.63
2022-11-02T08:30:35.056Z,27.70
2022-11-02T08:33:06.088Z,21.30
2022-11-02T08:35:34.797Z,18.07
2022-11-02T08:38:03.302Z,19.87
2022-11-02T08:40:31.835Z,44.43
2022-11-02T08:43:00.364Z,20.40
2022-11-02T08:45:28.534Z,21.57
2022-11-02T08:47:56.712Z,17.87
2022-11-02T08:50:28.055Z,18.73
2022-11-02T08:52:55.936Z,10.23
2022-11-02T08:55:23.770Z,12.00
2022-11-02T08:57:53.024Z,10.63
2022-11-02T09:00:22.405Z,12.80
2022-11-02T09:03:00.685Z,9.83
2022-11-02T09:05:30.893Z,11.73
2022-11-02T09:08:00.357Z,7.93
2022-11-02T09:10:29.299Z,10.80
2022-11-02T09:12:57.515Z,8.37
2022-11-02T09:15:25.206Z,16.67
2022-11-02T09:17:52.952Z,10.30
2022-11-02T09:20:22.144Z,7.93
2022-11-02T09:22:51.358Z,8.77
2022-11-02T09:25:20.194Z,14.80
2022-11-02T09:27:50.432Z,9.00
2022-11-02T09:30:22.652Z,8.30
2022-11-02T09:32:55.217Z,5.13
2022-11-02T09:35:23.196Z,12.80
2022-11-02T09:37:52.289Z,7.77
2022-11-02T09:40:23.058Z,6.43
2022-11-02T09:43:02.727Z,8.37
2022-11-02T09:45:34.838Z,10.00
2022-11-02T09:48:27.843Z,9.00
2022-11-02T09:51:02.099Z,12.07
2022-11-02T09:53:40.716Z,13.03
2022-11-02T09:56:10.037Z,11.43
2022-11-02T09:58:40.498Z,7.23
2022-11-02T10:01:25.104Z,10.23
2022-11-02T10:04:15.877Z,15.33
2022-11-02T10:06:51.695Z,5.30
2022-11-02T10:09:27.438Z,10.50
2022-11-02T10:12:03.640Z,6.97
2022-11-02T10:14:34.306Z,5.67
2022-11-02T10:17:12.832Z,5.20
2022-11-02T10:19:45.782Z,6.97
2022-11-02T10:22:16.954Z,16.30
2022-11-02T10:24:48.022Z,8.37
2022-11-02T10:27:23.567Z,18.00
2022-11-02T10:29:59.117Z,9.50
2022-11-02T10:32:26.819Z,6.27
2022-11-02T10:34:59.131Z,6.23
2022-11-02T10:37:47.666Z,21.87
2022-11-02T10:40:29.391Z,14.77
2022-11-02T10:43:07.678Z,13.20
2022-11-02T10:45:53.423Z,13.90
2022-11-02T10:48:35.616Z,11.10
2022-11-02T10:51:09.643Z,7.37
2022-11-02T10:53:42.089Z,12.20
2022-11-02T10:56:20.653Z,6.00
2022-11-02T10:58:56.973Z,7.67
2022-11-02T11:01:24.901Z,7.53
2022-11-02T11:03:58.819Z,8.60
2022-11-02T11:06:29.822Z,10.90
2022-11-02T11:09:02.446Z,7.17
2022-11-02T11:11:33.120Z,13.33
2022-11-02T11:16:55.482Z,6.57
2022-11-02T11:19:42.082Z,9.13
2022-11-02T11:22:28.112Z,5.83
2022-11-02T11:25:24.430Z,7.80
2022-11-02T11:27:57.836Z,9.10
2022-11-02T11:30:54.149Z,10.20
2022-11-02T11:33:18.401Z,8.73
2022-11-02T11:35:50.606Z,4.93
2022-11-02T11:38:21.086Z,13.37
2022-11-02T11:40:53.891Z,8.33
2022-11-02T11:43:25.629Z,12.97
2022-11-02T11:46:04.862Z,13.03
2022-11-02T11:48:38.995Z,7.00
2022-11-02T11:51:26.429Z,5.70
2022-11-02T11:54:22.951Z,5.00
2022-11-02T11:56:52.443Z,9.53
2022-11-02T11:59:31.529Z,5.43
2022-11-02T12:02:01.111Z,7.03
2022-11-02T12:04:31.339Z,10.73
2022-11-02T12:07:25.103Z,10.57
2022-11-02T12:10:05.126Z,7.80
2022-11-02T12:12:51.548Z,8.73
2022-11-02T12:15:37.336Z,10.10
2022-11-02T12:18:17.991Z,10.03
2022-11-02T12:21:00.470Z,7.00
2022-11-02T12:24:05.728Z,5.47
2022-11-02T12:26:47.208Z,13.47
2022-11-02T12:29:36.773Z,8.70
2022-11-02T12:32:14.182Z,10.20
2022-11-02T12:35:27.889Z,3.67
2022-11-02T12:38:12.812Z,9.60
2022-11-02T12:40:50.753Z,12.20
2022-11-02T12:43:33.024Z,7.27
2022-11-02T12:46:05.052Z,5.53
2022-11-02T12:48:43.467Z,10.60
2022-11-02T12:51:15.978Z,13.70
2022-11-02T12:53:49.928Z,9.30
2022-11-02T12:56:22.087Z,4.80
2022-11-02T12:58:50.525Z,11.13
2022-11-02T13:01:26.140Z,7.63
2022-11-02T13:04:02.114Z,5.30
2022-11-02T13:06:35.825Z,8.93
2022-11-02T13:09:08.455Z,16.87
2022-11-02T13:11:40.051Z,4.90
2022-11-02T13:14:15.523Z,8.60
2022-11-02T13:16:50.014Z,8.77
2022-11-02T13:19:23.146Z,9.20
2022-11-02T13:21:55.220Z,12.40
2022-11-02T13:24:31.730Z,7.20
2022-11-02T13:27:14.675Z,6.60
2022-11-02T13:29:51.162Z,6.13
2022-11-02T13:32:29.662Z,6.63
2022-11-02T13:35:07.593Z,8.40
2022-11-02T13:37:39.311Z,7.17
2022-11-02T13:40:15.330Z,6.70
2022-11-02T13:43:18.029Z,16.53
2022-11-02T13:46:06.651Z,7.50
2022-11-02T13:48:49.390Z,7.50
2022-11-02T13:51:27.039Z,5.00
2022-11-02T13:54:00.516Z,11.87
2022-11-02T13:56:30.375Z,13.90
2022-11-02T13:59:05.054Z,7.40
2022-11-02T14:01:36.357Z,5.87
2022-11-02T14:04:07.330Z,7.07
2022-11-02T14:06:48.742Z,11.43
2022-11-02T14:09:28.151Z,8.70
2022-11-02T14:12:29.004Z,11.07
2022-11-02T14:15:38.266Z,4.17
2022-11-02T14:18:14.416Z,14.83
2022-11-02T14:20:44.262Z,9.23
2022-11-02T14:23:41.539Z,13.77
2022-11-02T14:26:31.880Z,10.63
2022-11-02T14:28:59.905Z,8.23
2022-11-02T14:31:45.312Z,9.30
2022-11-02T14:34:29.666Z,9.80
2022-11-02T14:37:18.826Z,11.63
2022-11-02T14:39:59.946Z,7.90
2022-11-02T14:42:48.805Z,9.03
2022-11-02T14:45:45.341Z,10.50
2022-11-02T14:48:17.242Z,9.00
2022-11-02T14:50:58.137Z,12.53
2022-11-02T14:53:28.809Z,7.50
2022-11-02T14:55:58.248Z,11.73
2022-11-02T14:58:32.624Z,12.63
2022-11-02T15:01:03.122Z,8.63
2022-11-02T15:03:35.894Z,7.57
2022-11-02T15:06:06.186Z,8.30
2022-11-02T15:08:37.500Z,10.93
2022-11-02T15:11:42.562Z,9.37
2022-11-02T15:14:53.233Z,7.20
2022-11-02T15:17:59.699Z,12.20
2022-11-02T15:20:31.304Z,13.13
2022-11-02T15:23:09.725Z,13.37
2022-11-02T15:25:41.591Z,13.13
2022-11-02T15:28:14.451Z,11.27
2022-11-02T15:30:45.697Z,20.73
2022-11-02T15:33:23.958Z,12.60
2022-11-02T15:35:54.456Z,7.43
2022-11-02T15:38:33.783Z,13.00
2022-11-02T15:41:14.728Z,6.97
2022-11-02T15:44:03.535Z,9.93
2022-11-02T15:46:45.152Z,13.60
2022-11-02T15:49:25.670Z,7.70
2022-11-02T15:52:04.016Z,9.53
2022-11-02T15:54:49.358Z,15.67
2022-11-02T15:57:30.438Z,13.70
2022-11-02T16:00:15.493Z,12.13
2022-11-02T16:02:48.601Z,8.80
2022-11-02T16:05:23.662Z,12.00
2022-11-02T16:10:41.352Z,19.70
2022-11-02T16:13:16.879Z,9.80
2022-11-02T16:15:45.323Z,11.03
2022-11-02T16:18:29.131Z,11.67
2022-11-02T16:21:00.517Z,17.33
2022-11-02T16:23:30.050Z,13.07
2022-11-02T16:25:59.753Z,6.60
2022-11-02T16:28:30.266Z,10.50
2022-11-02T16:31:08.693Z,10.70
2022-11-02T16:33:45.415Z,17.60
2022-11-02T16:36:16.686Z,14.30
2022-11-02T16:38:48.446Z,15.77
2022-11-02T16:41:17.327Z,32.57
2022-11-02T16:43:47.133Z,10.00
2022-11-02T16:46:17.365Z,11.53
2022-11-02T16:51:38.536Z,13.57
2022-11-02T16:54:39.287Z,17.40
2022-11-02T16:57:12.633Z,12.80
2022-11-02T16:59:51.322Z,19.07
2022-11-02T17:02:19.857Z,16.33
2022-11-02T17:04:48.690Z,14.47
2022-11-02T17:07:23.382Z,18.30
2022-11-02T17:09:54.415Z,14.13
2022-11-02T17:12:30.045Z,14.93
2022-11-02T17:14:58.942Z,18.07
2022-11-02T17:17:37.585Z,16.40
2022-11-02T17:20:18.493Z,18.87
2022-11-02T17:22:57.218Z,16.63
2022-11-02T17:25:27.553Z,11.30
2022-11-02T17:27:56.837Z,20.67
2022-11-02T17:30:44.402Z,15.20
2022-11-02T17:33:22.946Z,19.40
2022-11-02T17:35:52.333Z,16.93
2022-11-02T17:38:24.669Z,15.20
2022-11-02T17:40:53.666Z,13.77
2022-11-02T17:43:21.795Z,19.70
2022-11-02T17:45:56.401Z,11.40
2022-11-02T17:48:26.216Z,14.17
2022-11-02T17:50:56.045Z,19.53
2022-11-02T17:53:25.367Z,14.23
2022-11-02T17:55:53.843Z,16.47
2022-11-02T17:58:21.631Z,20.30
2022-11-02T18:00:49.531Z,13.27
2022-11-02T18:03:20.179Z,15.83
2022-11-02T18:05:50.960Z,13.47
2022-11-02T18:08:20.405Z,14.50
2022-11-02T18:10:52.841Z,18.53
2022-11-02T18:13:22.012Z,21.17
2022-11-02T18:15:50.661Z,24.80
2022-11-02T18:18:18.283Z,46.57
2022-11-02T18:20:45.927Z,23.90
2022-11-02T18:23:16.846Z,22.90
2022-11-02T18:25:44.717Z,21.23
2022-11-02T18:28:14.457Z,15.27
2022-11-02T18:30:44.164Z,21.87
2022-11-02T18:33:13.648Z,14.70
2022-11-02T18:35:43.126Z,15.17
2022-11-02T18:38:11.561Z,21.30
2022-11-02T18:40:39.571Z,19.07
2022-11-02T18:43:07.759Z,14.60
2022-11-02T18:45:37.173Z,15.57
2022-11-02T18:48:09.256Z,20.97
2022-11-02T18:50:37.172Z,17.40
2022-11-02T18:53:04.809Z,19.73
2022-11-02T18:55:32.542Z,19.50
2022-11-02T18:58:00.276Z,19.37
2022-11-02T19:00:28.135Z,15.10
2022-11-02T19:02:57.167Z,20.60
2022-11-02T19:05:42.731Z,14.40
2022-11-02T19:08:28.487Z,19.77
2022-11-02T19:10:56.641Z,16.13
2022-11-02T19:13:27.133Z,13.43
2022-11-02T19:15:56.204Z,15.87
2022-11-02T19:18:25.383Z,15.27
2022-11-02T19:20:53.067Z,18.40
2022-11-02T19:23:21.366Z,12.90
2022-11-02T19:25:52.559Z,16.67
2022-11-02T19:28:20.471Z,20.27
2022-11-02T19:30:48.128Z,20.10
2022-11-02T19:33:15.791Z,16.57
2022-11-02T19:35:54.782Z,16.60
2022-11-02T19:38:22.696Z,16.20
2022-11-02T19:41:00.772Z,18.37
2022-11-02T19:43:28.465Z,19.13
2022-11-02T19:46:00.788Z,21.33
2022-11-02T19:48:28.653Z,21.57
2022-11-02T19:50:57.833Z,24.33
2022-11-02T19:53:29.838Z,19.30
2022-11-02T19:55:57.449Z,24.30
2022-11-02T19:58:25.180Z,13.73
2022-11-02T20:00:52.867Z,16.17
2022-11-02T20:03:20.664Z,17.73
2022-11-02T20:05:48.459Z,22.23
2022-11-02T20:08:17.749Z,24.97
2022-11-02T20:10:45.390Z,20.93
2022-11-02T20:13:13.291Z,21.23
2022-11-02T20:15:41.025Z,21.20
2022-11-02T20:18:18.879Z,26.87
2022-11-02T20:20:47.758Z,20.10
2022-11-02T20:23:16.832Z,20.73
2022-11-02T20:25:44.491Z,19.25
2022-11-02T20:28:12.235Z,16.07
2022-11-02T20:30:41.936Z,21.07
2022-11-02T20:33:09.634Z,18.60
2022-11-02T20:35:38.929Z,14.33
2022-11-02T20:38:07.037Z,18.93
2022-11-02T20:40:40.997Z,16.88
2022-11-02T20:43:08.951Z,15.40
2022-11-02T20:45:36.846Z,20.38
2022-11-02T20:48:05.368Z,15.90
2022-11-02T20:50:33.738Z,17.03
2022-11-02T20:53:01.416Z,17.38
2022-11-02T20:55:29.116Z,17.57
2022-11-02T20:57:58.142Z,13.80
2022-11-02T21:00:26.555Z,15.43
2022-11-02T21:02:54.223Z,13.90
2022-11-02T21:05:21.877Z,17.27
2022-11-02T21:07:51.821Z,12.97
2022-11-02T21:10:20.140Z,19.05
2022-11-02T21:13:05.577Z,19.02
2022-11-02T21:15:37.013Z,18.00
2022-11-02T21:18:05.032Z,18.80
2022-11-02T21:20:34.890Z,17.35
2022-11-02T21:23:02.964Z,18.90
2022-11-02T21:25:31.919Z,22.25
2022-11-02T21:27:59.922Z,26.27
2022-11-02T21:30:27.937Z,17.90
2022-11-02T21:32:57.059Z,15.60
2022-11-02T21:35:25.234Z,15.80
2022-11-02T21:37:56.674Z,20.45
2022-11-02T21:40:24.577Z,14.77
2022-11-02T21:42:52.408Z,16.35
2022-11-02T21:45:23.861Z,20.85
2022-11-02T21:47:53.733Z,17.02
2022-11-02T21:50:22.771Z,20.02
2022-11-02T21:52:50.541Z,13.75
2022-11-02T21:55:18.327Z,15.57
2022-11-02T21:57:46.058Z,14.63
2022-11-02T22:00:14.642Z,15.35
2022-11-02T22:02:41.419Z,17.92
2022-11-02T22:05:29.372Z,23.55
2022-11-02T22:08:16.115Z,14.50
2022-11-02T22:10:44.060Z,19.52
2022-11-02T22:13:29.500Z,15.38
2022-11-02T22:15:57.360Z,17.17
2022-11-02T22:18:25.153Z,17.35
2022-11-02T22:20:56.642Z,14.20
2022-11-02T22:23:26.905Z,19.48
2022-11-02T22:25:59.400Z,16.45
2022-11-02T22:28:30.495Z,17.92
2022-11-02T22:30:58.753Z,20.67
2022-11-02T22:33:27.184Z,14.63
2022-11-02T22:35:55.065Z,21.98
2022-11-02T22:38:39.651Z,13.63
2022-11-02T22:41:08.810Z,22.52
2022-11-02T22:43:36.774Z,15.55
2022-11-02T22:46:06.382Z,23.63
2022-11-02T22:48:34.778Z,14.18
2022-11-02T22:51:04.203Z,14.35
2022-11-02T22:53:32.010Z,22.58
2022-11-02T22:56:01.590Z,15.88
2022-11-02T22:58:32.830Z,12.30
2022-11-02T23:01:01.334Z,14.95
2022-11-02T23:03:32.043Z,13.93
2022-11-02T23:05:59.765Z,19.98
2022-11-02T23:08:28.463Z,17.38
2022-11-02T23:11:14.308Z,16.02
2022-11-02T23:13:44.537Z,15.95
2022-11-02T23:16:23.003Z,26.48
2022-11-02T23:19:11.170Z,18.25
2022-11-02T23:21:40.193Z,20.58
2022-11-02T23:24:26.639Z,16.92
2022-11-02T23:26:54.911Z,15.73
2022-11-02T23:29:41.713Z,17.98
2022-11-02T23:32:27.892Z,15.40
2022-11-02T23:35:14.836Z,15.77
2022-11-02T23:37:43.439Z,17.08
2022-11-02T23:40:13.159Z,16.25
2022-11-02T23:42:41.000Z,16.05
2022-11-02T23:45:11.750Z,14.80
2022-11-02T23:47:57.920Z,18.15
2022-11-02T23:50:53.816Z,16.00
2022-11-02T23:53:41.260Z,18.40
2022-11-02T23:56:38.168Z,14.30
2022-11-02T23:59:08.929Z,21.30
